createdAt,value
2019-03-26T00:00:10.331Z,3.3
2019-03-26T00:15:10.368Z,3.4
2019-03-26T00:30:10.430Z,3.3
2019-03-26T00:45:10.449Z,3.1
2019-03-26T01:00:10.478Z,3
2019-03-26T01:15:10.559Z,3
2019-03-26T01:30:10.561Z,3
2019-03-26T01:45:10.600Z,3
2019-03-26T02:00:10.736Z,3
2019-03-26T02:15:10.726Z,3
2019-03-26T02:30:10.742Z,2.9
2019-03-26T02:45:10.792Z,2.9
2019-03-26T03:00:10.869Z,2.9
2019-03-26T03:15:10.832Z,3
2019-03-26T03:30:10.915Z,2.9
2019-03-26T03:45:10.904Z,2.9
2019-03-26T04:00:11.035Z,2.9
2019-03-26T04:15:11.318Z,2.7
2019-03-26T04:30:11.325Z,2.8
2019-03-26T04:45:11.496Z,2.7
2019-03-26T05:00:11.705Z,2.7
2019-03-26T05:15:03.632Z,2.5
2019-03-26T05:30:03.424Z,2.5
2019-03-26T05:45:03.701Z,2.7
2019-03-26T06:00:03.789Z,2.8
2019-03-26T06:15:05.175Z,3
2019-03-26T06:30:04.831Z,3
2019-03-26T06:45:04.966Z,3.2
2019-03-26T07:00:07.536Z,3.6
2019-03-26T07:15:05.052Z,3.5
2019-03-26T07:30:05.216Z,3.6
2019-03-26T07:45:06.385Z,3.9
2019-03-26T08:00:08.406Z,3.9
2019-03-26T08:15:08.745Z,4.1
2019-03-26T08:30:11.611Z,3.7
2019-03-26T08:45:11.500Z,4.7
2019-03-26T09:00:12.317Z,4.4
2019-03-26T09:15:14.865Z,4.3
2019-03-26T09:30:02.397Z,4.6
2019-03-26T09:45:12.450Z,5.2
2019-03-26T10:00:12.463Z,5.3
2019-03-26T10:15:12.550Z,4.8
2019-03-26T10:30:13.441Z,5.3
2019-03-26T10:45:12.760Z,4.8
2019-03-26T11:00:03.360Z,5.1
2019-03-26T11:15:03.912Z,5.6
2019-03-26T11:30:03.959Z,5.8
2019-03-26T11:45:03.974Z,5.7
2019-03-26T12:00:06.927Z,6.1
2019-03-26T12:15:07.958Z,6
2019-03-26T12:30:02.379Z,6.7
2019-03-26T12:45:07.521Z,6.7
2019-03-26T13:00:12.695Z,6.8
2019-03-26T13:15:03.805Z,7.2
2019-03-26T13:30:05.823Z,7.5
2019-03-26T13:45:05.977Z,7
2019-03-26T14:00:04.794Z,7.1
2019-03-26T14:15:04.863Z,7.3
2019-03-26T14:30:04.797Z,7
2019-03-26T14:45:05.042Z,7.5
2019-03-26T15:00:05.044Z,7.8
2019-03-26T15:15:05.201Z,7.7
2019-03-26T15:30:05.264Z,7.4
2019-03-26T15:45:05.236Z,6.7
2019-03-26T16:00:07.752Z,6.3
2019-03-26T16:15:08.371Z,6.1
2019-03-26T16:30:08.845Z,5.9
2019-03-26T16:45:09.159Z,5.9
2019-03-26T17:00:09.940Z,6.5
2019-03-26T17:15:10.507Z,6
2019-03-26T17:30:12.108Z,5.5
2019-03-26T17:45:12.363Z,5.1
2019-03-26T18:00:12.410Z,4.6
2019-03-26T18:15:12.572Z,4.3
2019-03-26T18:30:06.001Z,4.3
2019-03-26T18:45:06.963Z,4.1
2019-03-26T19:00:07.560Z,4.1
2019-03-26T19:15:07.555Z,4.1
2019-03-26T19:30:09.950Z,4.2
2019-03-26T19:45:10.029Z,4.2
2019-03-26T20:00:10.055Z,4.3
2019-03-26T20:15:10.360Z,4.2
2019-03-26T20:30:03.770Z,4.1
2019-03-26T20:45:03.773Z,4
2019-03-26T21:00:03.786Z,4
2019-03-26T21:15:06.029Z,3.9
2019-03-26T21:30:15.483Z,3.9
2019-03-26T21:45:06.575Z,4
2019-03-26T22:00:06.639Z,3.6
2019-03-26T22:15:07.263Z,3.8
2019-03-26T22:30:07.822Z,3.9
2019-03-26T22:45:07.856Z,3.9
2019-03-26T23:00:08.616Z,3.9
2019-03-26T23:15:09.364Z,3.9
2019-03-26T23:30:09.423Z,4
2019-03-26T23:45:09.409Z,3.9
